createdAt,value
2022-07-31T00:01:46.892Z,9.00
2022-07-31T00:06:49.694Z,10.40
2022-07-31T00:11:52.527Z,10.40
2022-07-31T00:16:57.433Z,9.80
2022-07-31T00:22:00.158Z,7.80
2022-07-31T00:27:03.177Z,11.60
2022-07-31T00:32:07.628Z,10.00
2022-07-31T00:37:11.021Z,9.40
2022-07-31T00:42:18.158Z,11.40
2022-07-31T00:47:25.537Z,8.80
2022-07-31T00:52:28.504Z,8.40
2022-07-31T00:57:31.191Z,8.60
2022-07-31T01:02:35.252Z,10.20
2022-07-31T01:07:38.072Z,8.40
2022-07-31T01:12:52.354Z,8.80
2022-07-31T01:17:58.307Z,7.40
2022-07-31T01:23:29.152Z,7.20
2022-07-31T01:29:03.910Z,10.60
2022-07-31T01:34:09.214Z,9.20
2022-07-31T01:39:12.262Z,8.60
2022-07-31T01:44:16.755Z,7.40
2022-07-31T01:49:20.590Z,8.80
2022-07-31T01:54:23.367Z,10.00
2022-07-31T01:59:28.208Z,8.60
2022-07-31T02:04:47.073Z,9.00
2022-07-31T02:09:57.826Z,9.60
2022-07-31T02:15:07.937Z,9.40
2022-07-31T02:20:13.140Z,7.00
2022-07-31T02:25:16.507Z,9.40
2022-07-31T02:30:20.629Z,8.60
2022-07-31T02:35:25.732Z,7.40
2022-07-31T02:40:28.505Z,10.00
2022-07-31T02:45:32.673Z,9.20
2022-07-31T02:50:35.577Z,8.00
2022-07-31T02:55:38.998Z,8.60
2022-07-31T03:00:43.435Z,8.00
2022-07-31T03:05:46.221Z,9.80
2022-07-31T03:10:49.216Z,7.80
2022-07-31T03:15:53.696Z,8.00
2022-07-31T03:20:56.683Z,6.00
2022-07-31T03:25:59.464Z,9.00
2022-07-31T03:31:03.593Z,7.80
2022-07-31T03:36:09.425Z,9.00
2022-07-31T03:41:12.342Z,8.20
2022-07-31T03:46:16.992Z,9.60
2022-07-31T03:51:20.165Z,6.00
2022-07-31T03:56:22.939Z,8.00
2022-07-31T04:01:27.129Z,6.00
2022-07-31T04:06:55.021Z,9.00
2022-07-31T04:11:57.863Z,7.00
2022-07-31T04:17:02.067Z,8.00
2022-07-31T04:22:05.483Z,8.40
2022-07-31T04:27:12.723Z,7.20
2022-07-31T04:32:21.666Z,5.00
2022-07-31T04:37:35.235Z,7.60
2022-07-31T04:42:38.555Z,7.80
2022-07-31T04:47:42.881Z,7.80
2022-07-31T04:52:45.601Z,6.00
2022-07-31T04:57:48.664Z,6.00
2022-07-31T05:02:52.692Z,6.00
2022-07-31T05:07:55.430Z,6.60
2022-07-31T05:13:02.667Z,8.00
2022-07-31T05:18:08.725Z,5.00
2022-07-31T05:23:29.742Z,5.20
2022-07-31T05:28:58.129Z,5.00
2022-07-31T05:34:02.635Z,6.20
2022-07-31T05:39:05.512Z,6.00
2022-07-31T05:44:17.060Z,9.40
2022-07-31T05:49:26.675Z,24.25
2022-07-31T05:54:30.033Z,21.75
2022-07-31T05:59:51.190Z,22.25
2022-07-31T06:04:55.813Z,24.25
2022-07-31T06:09:58.995Z,25.50
2022-07-31T06:15:01.875Z,29.00
2022-07-31T06:20:11.926Z,26.50
2022-07-31T06:25:16.473Z,25.50
2022-07-31T06:30:19.232Z,26.00
2022-07-31T06:35:24.840Z,26.00
2022-07-31T06:40:46.175Z,32.00
2022-07-31T06:46:14.285Z,26.75
2022-07-31T06:51:50.549Z,31.00
2022-07-31T06:56:53.349Z,33.75
2022-07-31T07:01:56.283Z,29.75
2022-07-31T07:07:00.445Z,38.33
2022-07-31T07:12:03.709Z,30.50
2022-07-31T07:17:08.012Z,30.50
2022-07-31T07:22:12.835Z,32.25
2022-07-31T07:27:15.945Z,33.50
2022-07-31T07:32:18.916Z,34.50
2022-07-31T07:37:23.489Z,28.75
2022-07-31T07:42:26.825Z,34.75
2022-07-31T07:48:05.164Z,34.00
2022-07-31T07:52:54.667Z,30.00
2022-07-31T07:58:17.958Z,32.25
2022-07-31T08:03:48.353Z,31.75
2022-07-31T08:08:55.745Z,31.75
2022-07-31T08:14:16.883Z,30.75
2022-07-31T08:19:38.393Z,33.50
2022-07-31T08:24:44.519Z,31.75
2022-07-31T08:29:47.592Z,31.50
2022-07-31T08:34:53.098Z,35.00
2022-07-31T08:39:57.511Z,31.50
2022-07-31T08:45:00.253Z,34.75
2022-07-31T08:50:07.304Z,35.00
2022-07-31T08:55:54.921Z,35.25
2022-07-31T09:00:37.527Z,36.00
2022-07-31T09:05:42.783Z,29.00
2022-07-31T09:10:50.195Z,33.00
2022-07-31T09:15:53.713Z,33.75
2022-07-31T09:20:59.622Z,31.75
2022-07-31T09:26:04.888Z,31.00
2022-07-31T09:31:09.348Z,30.25
2022-07-31T09:36:30.705Z,30.25
2022-07-31T09:42:00.009Z,34.75
2022-07-31T09:47:40.567Z,32.00
2022-07-31T09:52:43.849Z,29.50
2022-07-31T09:57:54.061Z,26.75
2022-07-31T10:02:57.766Z,26.00
2022-07-31T10:08:02.203Z,25.00
2022-07-31T10:13:26.739Z,25.00
2022-07-31T10:18:36.507Z,26.50
2022-07-31T10:24:19.134Z,23.00
2022-07-31T10:29:26.611Z,22.50
2022-07-31T10:34:29.662Z,26.75
2022-07-31T10:39:54.447Z,23.50
2022-07-31T10:45:07.694Z,24.50
2022-07-31T10:50:21.740Z,23.50
2022-07-31T10:55:44.852Z,20.00
2022-07-31T11:01:07.713Z,22.00
2022-07-31T11:06:39.160Z,17.25
2022-07-31T11:12:00.487Z,18.25
2022-07-31T11:18:20.871Z,19.25
2022-07-31T11:23:09.974Z,20.75
2022-07-31T11:28:14.462Z,16.40
2022-07-31T11:33:29.089Z,12.20
2022-07-31T11:38:34.601Z,12.60
2022-07-31T11:43:39.563Z,13.40
2022-07-31T11:48:45.653Z,11.60
2022-07-31T11:53:56.922Z,12.80
2022-07-31T11:59:00.556Z,12.40
2022-07-31T12:04:08.621Z,10.00
2022-07-31T12:10:00.954Z,10.00
2022-07-31T12:14:36.563Z,12.20
2022-07-31T12:19:40.957Z,13.40
2022-07-31T12:24:44.097Z,14.20
2022-07-31T12:29:46.938Z,15.80
2022-07-31T12:34:51.395Z,13.00
2022-07-31T12:40:00.718Z,15.40
2022-07-31T12:45:19.321Z,13.00
2022-07-31T12:50:24.905Z,13.00
2022-07-31T12:55:29.054Z,14.00
2022-07-31T13:00:33.244Z,13.40
2022-07-31T13:05:40.076Z,11.40
2022-07-31T13:10:42.855Z,7.20
2022-07-31T13:15:46.425Z,6.00
2022-07-31T13:20:50.654Z,7.40
2022-07-31T13:25:53.421Z,6.00
2022-07-31T13:30:56.227Z,5.60
2022-07-31T13:36:00.508Z,4.40
2022-07-31T13:41:23.959Z,6.00
2022-07-31T13:46:27.121Z,6.00
2022-07-31T13:51:31.224Z,6.40
2022-07-31T13:56:42.794Z,6.00
2022-07-31T14:02:02.813Z,6.80
2022-07-31T14:07:09.628Z,6.00
2022-07-31T14:12:15.769Z,6.20
2022-07-31T14:17:18.552Z,7.20
2022-07-31T14:22:22.634Z,6.60
2022-07-31T14:27:25.346Z,6.80
2022-07-31T14:32:30.403Z,6.80
2022-07-31T14:37:34.726Z,7.00
2022-07-31T14:42:37.620Z,7.40
2022-07-31T14:47:42.546Z,7.40
2022-07-31T14:52:46.655Z,6.60
2022-07-31T14:57:50.115Z,8.00
2022-07-31T15:02:52.897Z,7.40
2022-07-31T15:07:56.989Z,7.60
2022-07-31T15:13:01.159Z,8.80
2022-07-31T15:18:04.219Z,8.40
2022-07-31T15:23:08.462Z,7.80
2022-07-31T15:28:11.224Z,8.20
2022-07-31T15:33:13.983Z,9.00
2022-07-31T15:38:18.201Z,8.20
2022-07-31T15:43:21.016Z,9.20
2022-07-31T15:48:24.558Z,8.80
2022-07-31T15:53:30.114Z,8.00
2022-07-31T15:58:42.834Z,8.20
2022-07-31T16:03:51.080Z,9.00
2022-07-31T16:08:57.648Z,8.00
2022-07-31T16:14:00.514Z,7.00
2022-07-31T16:19:03.339Z,7.00
2022-07-31T16:24:07.989Z,7.00
2022-07-31T16:29:17.082Z,7.60
2022-07-31T16:34:20.434Z,7.00
2022-07-31T16:39:24.530Z,7.60
2022-07-31T16:44:27.309Z,7.20
2022-07-31T16:49:36.825Z,10.00
2022-07-31T16:54:41.458Z,7.00
2022-07-31T16:59:56.523Z,9.20
2022-07-31T17:05:00.660Z,8.20
2022-07-31T17:10:05.265Z,9.00
2022-07-31T17:15:08.990Z,8.60
2022-07-31T17:20:12.380Z,9.20
2022-07-31T17:25:19.281Z,7.00
2022-07-31T17:30:22.178Z,8.00
2022-07-31T17:35:24.982Z,7.40
2022-07-31T17:40:43.138Z,9.00
2022-07-31T17:45:59.346Z,7.80
2022-07-31T17:51:10.146Z,6.20
2022-07-31T17:56:14.476Z,8.00
2022-07-31T18:01:17.252Z,7.60
2022-07-31T18:06:20.230Z,9.60
2022-07-31T18:11:24.471Z,9.20
2022-07-31T18:16:27.294Z,9.00
2022-07-31T18:21:30.169Z,8.40
2022-07-31T18:26:35.242Z,9.00
2022-07-31T18:31:37.982Z,9.00
2022-07-31T18:36:41.138Z,15.20
2022-07-31T18:41:48.735Z,11.40
2022-07-31T18:46:53.071Z,11.20
2022-07-31T18:51:55.833Z,9.80
2022-07-31T18:56:59.984Z,10.60
2022-07-31T19:02:03.281Z,10.00
2022-07-31T19:07:06.365Z,12.20
2022-07-31T19:12:10.788Z,12.40
2022-07-31T19:17:16.394Z,10.20
2022-07-31T19:22:24.118Z,10.60
2022-07-31T19:27:48.568Z,11.60
2022-07-31T19:32:51.377Z,11.80
2022-07-31T19:37:58.478Z,12.00
2022-07-31T19:43:02.756Z,12.80
2022-07-31T19:48:06.582Z,13.20
2022-07-31T19:53:09.342Z,13.40
2022-07-31T19:58:13.490Z,12.20
2022-07-31T20:03:16.305Z,13.20
2022-07-31T20:08:19.104Z,12.00
2022-07-31T20:13:23.276Z,12.60
2022-07-31T20:18:28.881Z,12.80
2022-07-31T20:23:34.143Z,10.00
2022-07-31T20:28:40.088Z,10.80
2022-07-31T20:33:47.494Z,10.80
2022-07-31T20:39:00.114Z,9.80
2022-07-31T20:44:04.358Z,10.40
2022-07-31T20:49:07.266Z,9.00
2022-07-31T20:54:34.430Z,11.20
2022-07-31T20:59:39.042Z,10.60
2022-07-31T21:04:42.200Z,8.40
2022-07-31T21:09:44.898Z,10.40
2022-07-31T21:14:49.061Z,10.80
2022-07-31T21:19:52.091Z,9.40
2022-07-31T21:24:55.705Z,9.00
2022-07-31T21:30:00.669Z,9.20
2022-07-31T21:35:04.019Z,8.60
2022-07-31T21:40:08.423Z,11.00
2022-07-31T21:45:13.988Z,8.00
2022-07-31T21:50:29.105Z,8.80
2022-07-31T21:55:32.250Z,8.00
2022-07-31T22:00:40.236Z,10.00
2022-07-31T22:06:00.441Z,9.00
2022-07-31T22:11:03.305Z,9.00
2022-07-31T22:16:07.603Z,11.20
2022-07-31T22:21:10.728Z,10.00
2022-07-31T22:26:13.782Z,10.00
2022-07-31T22:31:18.396Z,8.80
2022-07-31T22:36:21.496Z,8.60
2022-07-31T22:41:24.517Z,8.40
2022-07-31T22:46:28.634Z,8.00
2022-07-31T22:51:38.547Z,8.00
2022-07-31T22:56:41.921Z,8.20
2022-07-31T23:01:46.034Z,9.40
2022-07-31T23:06:48.723Z,8.00
2022-07-31T23:11:51.490Z,8.20
2022-07-31T23:16:55.594Z,8.60
2022-07-31T23:21:58.767Z,7.80
2022-07-31T23:27:08.044Z,8.60
2022-07-31T23:32:12.077Z,7.80
2022-07-31T23:37:14.813Z,7.20
2022-07-31T23:42:35.240Z,9.00
2022-07-31T23:47:45.059Z,8.40
2022-07-31T23:52:49.213Z,8.00
2022-07-31T23:57:52.005Z,7.80
